sensor_id;sensor_type;location;lat;lon;timestamp;temperature;humidity
59572;DHT22;70118;45.638;11.714;2023-10-31T00:02:17;21.40;83.40
59572;DHT22;70118;45.638;11.714;2023-10-31T00:04:43;21.40;83.60
59572;DHT22;70118;45.638;11.714;2023-10-31T00:07:09;21.50;83.50
59572;DHT22;70118;45.638;11.714;2023-10-31T00:09:35;21.50;83.90
59572;DHT22;70118;45.638;11.714;2023-10-31T00:12:01;21.50;83.70
59572;DHT22;70118;45.638;11.714;2023-10-31T00:14:26;21.50;83.90
59572;DHT22;70118;45.638;11.714;2023-10-31T00:16:52;21.50;83.80
59572;DHT22;70118;45.638;11.714;2023-10-31T00:19:18;21.40;83.80
59572;DHT22;70118;45.638;11.714;2023-10-31T00:21:44;21.50;83.80
59572;DHT22;70118;45.638;11.714;2023-10-31T00:24:10;21.40;83.70
59572;DHT22;70118;45.638;11.714;2023-10-31T00:26:36;21.50;83.60
59572;DHT22;70118;45.638;11.714;2023-10-31T00:29:02;21.50;83.40
59572;DHT22;70118;45.638;11.714;2023-10-31T00:31:28;21.50;83.40
59572;DHT22;70118;45.638;11.714;2023-10-31T00:33:53;21.50;83.40
59572;DHT22;70118;45.638;11.714;2023-10-31T00:36:21;21.50;83.30
59572;DHT22;70118;45.638;11.714;2023-10-31T00:38:46;21.40;83.20
59572;DHT22;70118;45.638;11.714;2023-10-31T00:41:12;21.40;83.30
59572;DHT22;70118;45.638;11.714;2023-10-31T00:43:38;21.50;83.20
59572;DHT22;70118;45.638;11.714;2023-10-31T00:46:04;21.50;83.30
59572;DHT22;70118;45.638;11.714;2023-10-31T00:48:30;21.50;83.20
59572;DHT22;70118;45.638;11.714;2023-10-31T00:51:05;21.50;83.30
59572;DHT22;70118;45.638;11.714;2023-10-31T00:53:31;21.40;83.40
59572;DHT22;70118;45.638;11.714;2023-10-31T00:55:57;21.50;83.20
59572;DHT22;70118;45.638;11.714;2023-10-31T00:58:23;21.50;83.10
59572;DHT22;70118;45.638;11.714;2023-10-31T01:00:49;21.50;83.20
59572;DHT22;70118;45.638;11.714;2023-10-31T01:03:15;21.50;83.10
59572;DHT22;70118;45.638;11.714;2023-10-31T01:05:41;21.50;83.00
59572;DHT22;70118;45.638;11.714;2023-10-31T01:08:06;21.50;83.10
59572;DHT22;70118;45.638;11.714;2023-10-31T01:10:32;21.50;83.00
59572;DHT22;70118;45.638;11.714;2023-10-31T01:12:58;21.40;83.00
59572;DHT22;70118;45.638;11.714;2023-10-31T01:15:24;21.50;83.00
59572;DHT22;70118;45.638;11.714;2023-10-31T01:17:50;21.40;83.00
59572;DHT22;70118;45.638;11.714;2023-10-31T01:20:16;21.50;83.00
59572;DHT22;70118;45.638;11.714;2023-10-31T01:22:41;21.50;83.00
59572;DHT22;70118;45.638;11.714;2023-10-31T01:25:07;21.40;83.10
59572;DHT22;70118;45.638;11.714;2023-10-31T01:27:33;21.50;83.10
59572;DHT22;70118;45.638;11.714;2023-10-31T01:29:59;21.40;82.90
59572;DHT22;70118;45.638;11.714;2023-10-31T01:32:25;21.40;83.00
59572;DHT22;70118;45.638;11.714;2023-10-31T01:34:51;21.40;82.90
59572;DHT22;70118;45.638;11.714;2023-10-31T01:37:17;21.50;83.00
59572;DHT22;70118;45.638;11.714;2023-10-31T01:39:45;21.50;83.00
59572;DHT22;70118;45.638;11.714;2023-10-31T01:42:14;21.40;83.00
59572;DHT22;70118;45.638;11.714;2023-10-31T01:44:40;21.50;82.90
59572;DHT22;70118;45.638;11.714;2023-10-31T01:47:06;21.50;83.00
59572;DHT22;70118;45.638;11.714;2023-10-31T01:49:32;21.50;83.00
59572;DHT22;70118;45.638;11.714;2023-10-31T01:52:00;21.50;83.00
59572;DHT22;70118;45.638;11.714;2023-10-31T01:54:26;21.50;82.90
59572;DHT22;70118;45.638;11.714;2023-10-31T01:56:57;21.50;82.90
59572;DHT22;70118;45.638;11.714;2023-10-31T01:59:25;21.50;82.80
59572;DHT22;70118;45.638;11.714;2023-10-31T02:01:51;21.40;82.90
59572;DHT22;70118;45.638;11.714;2023-10-31T02:04:16;21.50;82.90
59572;DHT22;70118;45.638;11.714;2023-10-31T02:06:42;21.40;82.90
59572;DHT22;70118;45.638;11.714;2023-10-31T02:09:08;21.50;82.90
59572;DHT22;70118;45.638;11.714;2023-10-31T02:11:34;21.40;82.90
59572;DHT22;70118;45.638;11.714;2023-10-31T02:14:01;21.40;82.90
59572;DHT22;70118;45.638;11.714;2023-10-31T02:16:27;21.40;82.80
59572;DHT22;70118;45.638;11.714;2023-10-31T02:18:53;21.40;82.90
59572;DHT22;70118;45.638;11.714;2023-10-31T02:21:20;21.40;82.90
59572;DHT22;70118;45.638;11.714;2023-10-31T02:24:00;21.40;82.80
59572;DHT22;70118;45.638;11.714;2023-10-31T02:26:30;21.40;83.00
59572;DHT22;70118;45.638;11.714;2023-10-31T02:28:55;21.40;82.90
59572;DHT22;70118;45.638;11.714;2023-10-31T02:31:21;21.40;82.90
59572;DHT22;70118;45.638;11.714;2023-10-31T02:33:47;21.40;83.00
59572;DHT22;70118;45.638;11.714;2023-10-31T02:36:13;21.50;82.80
59572;DHT22;70118;45.638;11.714;2023-10-31T02:38:39;21.50;82.70
59572;DHT22;70118;45.638;11.714;2023-10-31T02:41:05;21.50;82.80
59572;DHT22;70118;45.638;11.714;2023-10-31T02:43:31;21.40;82.80
59572;DHT22;70118;45.638;11.714;2023-10-31T02:45:57;21.40;82.80
59572;DHT22;70118;45.638;11.714;2023-10-31T02:48:23;21.50;82.90
59572;DHT22;70118;45.638;11.714;2023-10-31T02:50:50;21.50;82.80
59572;DHT22;70118;45.638;11.714;2023-10-31T02:53:18;21.40;82.90
59572;DHT22;70118;45.638;11.714;2023-10-31T02:55:44;21.40;82.90
59572;DHT22;70118;45.638;11.714;2023-10-31T02:58:10;21.40;82.90
59572;DHT22;70118;45.638;11.714;2023-10-31T03:00:37;21.40;82.90
59572;DHT22;70118;45.638;11.714;2023-10-31T03:03:03;21.50;82.80
59572;DHT22;70118;45.638;11.714;2023-10-31T03:05:29;21.50;82.80
59572;DHT22;70118;45.638;11.714;2023-10-31T03:07:55;21.50;82.90
59572;DHT22;70118;45.638;11.714;2023-10-31T03:10:21;21.40;82.80
59572;DHT22;70118;45.638;11.714;2023-10-31T03:12:47;21.50;82.90
59572;DHT22;70118;45.638;11.714;2023-10-31T03:15:13;21.40;82.80
59572;DHT22;70118;45.638;11.714;2023-10-31T03:17:39;21.40;82.90
59572;DHT22;70118;45.638;11.714;2023-10-31T03:20:05;21.40;82.80
59572;DHT22;70118;45.638;11.714;2023-10-31T03:22:31;21.50;82.80
59572;DHT22;70118;45.638;11.714;2023-10-31T03:24:57;21.40;82.80
59572;DHT22;70118;45.638;11.714;2023-10-31T03:27:23;21.50;82.70
59572;DHT22;70118;45.638;11.714;2023-10-31T03:29:49;21.40;82.80
59572;DHT22;70118;45.638;11.714;2023-10-31T03:32:15;21.50;82.80
59572;DHT22;70118;45.638;11.714;2023-10-31T03:34:41;21.40;82.80
59572;DHT22;70118;45.638;11.714;2023-10-31T03:37:07;21.50;82.70
59572;DHT22;70118;45.638;11.714;2023-10-31T03:39:33;21.40;82.80
59572;DHT22;70118;45.638;11.714;2023-10-31T03:41:59;21.40;82.70
59572;DHT22;70118;45.638;11.714;2023-10-31T03:44:25;21.40;82.80
59572;DHT22;70118;45.638;11.714;2023-10-31T03:46:51;21.50;83.00
59572;DHT22;70118;45.638;11.714;2023-10-31T03:49:17;21.40;82.90
59572;DHT22;70118;45.638;11.714;2023-10-31T03:51:43;21.40;82.80
59572;DHT22;70118;45.638;11.714;2023-10-31T03:54:09;21.50;82.70
59572;DHT22;70118;45.638;11.714;2023-10-31T03:56:40;21.40;82.80
59572;DHT22;70118;45.638;11.714;2023-10-31T03:59:06;21.30;82.80
59572;DHT22;70118;45.638;11.714;2023-10-31T04:01:32;21.50;82.70
59572;DHT22;70118;45.638;11.714;2023-10-31T04:03:58;21.40;82.70
59572;DHT22;70118;45.638;11.714;2023-10-31T04:06:24;21.40;82.70
59572;DHT22;70118;45.638;11.714;2023-10-31T04:08:50;21.40;82.80
59572;DHT22;70118;45.638;11.714;2023-10-31T04:11:16;21.40;82.80
59572;DHT22;70118;45.638;11.714;2023-10-31T04:13:41;21.40;82.80
59572;DHT22;70118;45.638;11.714;2023-10-31T04:16:07;21.40;82.90
59572;DHT22;70118;45.638;11.714;2023-10-31T04:18:33;21.50;82.80
59572;DHT22;70118;45.638;11.714;2023-10-31T04:20:59;21.40;82.70
59572;DHT22;70118;45.638;11.714;2023-10-31T04:23:25;21.40;82.60
59572;DHT22;70118;45.638;11.714;2023-10-31T04:25:51;21.40;82.80
59572;DHT22;70118;45.638;11.714;2023-10-31T04:28:18;21.40;82.70
59572;DHT22;70118;45.638;11.714;2023-10-31T04:30:44;21.40;82.70
59572;DHT22;70118;45.638;11.714;2023-10-31T04:33:10;21.40;82.80
59572;DHT22;70118;45.638;11.714;2023-10-31T04:35:36;21.40;82.70
59572;DHT22;70118;45.638;11.714;2023-10-31T04:38:02;21.40;82.70
59572;DHT22;70118;45.638;11.714;2023-10-31T04:40:28;21.40;82.80
59572;DHT22;70118;45.638;11.714;2023-10-31T04:42:54;21.40;82.70
59572;DHT22;70118;45.638;11.714;2023-10-31T04:45:20;21.40;82.70
59572;DHT22;70118;45.638;11.714;2023-10-31T04:47:47;21.40;82.80
59572;DHT22;70118;45.638;11.714;2023-10-31T04:50:13;21.40;82.80
59572;DHT22;70118;45.638;11.714;2023-10-31T04:52:39;21.40;82.70
59572;DHT22;70118;45.638;11.714;2023-10-31T04:55:05;21.40;82.70
59572;DHT22;70118;45.638;11.714;2023-10-31T04:57:31;21.50;82.80
59572;DHT22;70118;45.638;11.714;2023-10-31T04:59:57;21.40;82.60
59572;DHT22;70118;45.638;11.714;2023-10-31T05:02:24;21.40;82.70
59572;DHT22;70118;45.638;11.714;2023-10-31T05:04:50;21.40;82.70
59572;DHT22;70118;45.638;11.714;2023-10-31T05:07:20;21.40;82.70
59572;DHT22;70118;45.638;11.714;2023-10-31T05:09:46;21.50;82.70
59572;DHT22;70118;45.638;11.714;2023-10-31T05:12:11;21.40;82.60
59572;DHT22;70118;45.638;11.714;2023-10-31T05:14:37;21.40;82.70
59572;DHT22;70118;45.638;11.714;2023-10-31T05:17:05;21.40;82.50
59572;DHT22;70118;45.638;11.714;2023-10-31T05:19:32;21.40;82.70
59572;DHT22;70118;45.638;11.714;2023-10-31T05:21:58;21.40;82.70
59572;DHT22;70118;45.638;11.714;2023-10-31T05:24:24;21.40;82.70
59572;DHT22;70118;45.638;11.714;2023-10-31T05:26:50;21.40;82.70
59572;DHT22;70118;45.638;11.714;2023-10-31T05:29:16;21.40;82.70
59572;DHT22;70118;45.638;11.714;2023-10-31T05:31:41;21.40;82.60
59572;DHT22;70118;45.638;11.714;2023-10-31T05:34:08;21.40;82.60
59572;DHT22;70118;45.638;11.714;2023-10-31T05:36:34;21.40;82.80
59572;DHT22;70118;45.638;11.714;2023-10-31T05:39:00;21.40;83.00
59572;DHT22;70118;45.638;11.714;2023-10-31T05:41:26;21.40;82.80
59572;DHT22;70118;45.638;11.714;2023-10-31T05:43:52;21.30;82.80
59572;DHT22;70118;45.638;11.714;2023-10-31T05:46:19;21.40;82.70
59572;DHT22;70118;45.638;11.714;2023-10-31T05:48:46;21.40;82.90
59572;DHT22;70118;45.638;11.714;2023-10-31T05:51:14;21.40;82.90
59572;DHT22;70118;45.638;11.714;2023-10-31T05:53:45;21.40;83.00
59572;DHT22;70118;45.638;11.714;2023-10-31T05:56:15;21.40;83.10
59572;DHT22;70118;45.638;11.714;2023-10-31T05:58:43;21.40;83.00
59572;DHT22;70118;45.638;11.714;2023-10-31T06:01:11;21.40;83.00
59572;DHT22;70118;45.638;11.714;2023-10-31T06:03:42;21.40;83.10
59572;DHT22;70118;45.638;11.714;2023-10-31T06:06:13;21.50;83.10
59572;DHT22;70118;45.638;11.714;2023-10-31T06:08:42;21.40;83.00
59572;DHT22;70118;45.638;11.714;2023-10-31T06:11:08;21.40;83.20
59572;DHT22;70118;45.638;11.714;2023-10-31T06:13:40;21.50;83.20
59572;DHT22;70118;45.638;11.714;2023-10-31T06:16:10;21.40;83.20
59572;DHT22;70118;45.638;11.714;2023-10-31T06:18:38;21.50;83.20
59572;DHT22;70118;45.638;11.714;2023-10-31T06:21:05;21.40;83.20
59572;DHT22;70118;45.638;11.714;2023-10-31T06:23:31;21.40;83.20
59572;DHT22;70118;45.638;11.714;2023-10-31T06:25:58;21.50;83.20
59572;DHT22;70118;45.638;11.714;2023-10-31T06:28:24;21.50;83.10
59572;DHT22;70118;45.638;11.714;2023-10-31T06:30:50;21.60;83.10
59572;DHT22;70118;45.638;11.714;2023-10-31T06:33:16;21.50;83.20
59572;DHT22;70118;45.638;11.714;2023-10-31T06:35:42;21.50;83.10
59572;DHT22;70118;45.638;11.714;2023-10-31T06:38:07;21.50;83.00
59572;DHT22;70118;45.638;11.714;2023-10-31T06:40:33;21.50;82.90
59572;DHT22;70118;45.638;11.714;2023-10-31T06:43:00;21.50;82.70
59572;DHT22;70118;45.638;11.714;2023-10-31T06:45:26;21.40;82.80
59572;DHT22;70118;45.638;11.714;2023-10-31T06:47:52;21.50;82.70
59572;DHT22;70118;45.638;11.714;2023-10-31T06:50:18;21.60;82.60
59572;DHT22;70118;45.638;11.714;2023-10-31T06:52:44;21.50;82.70
59572;DHT22;70118;45.638;11.714;2023-10-31T06:55:10;21.60;82.50
59572;DHT22;70118;45.638;11.714;2023-10-31T06:57:36;21.60;82.40
59572;DHT22;70118;45.638;11.714;2023-10-31T07:00:03;21.60;82.30
59572;DHT22;70118;45.638;11.714;2023-10-31T07:02:29;21.60;82.40
59572;DHT22;70118;45.638;11.714;2023-10-31T07:04:54;21.70;82.30
59572;DHT22;70118;45.638;11.714;2023-10-31T07:07:20;21.70;82.30
59572;DHT22;70118;45.638;11.714;2023-10-31T07:09:46;21.80;82.00
59572;DHT22;70118;45.638;11.714;2023-10-31T07:12:12;21.70;81.90
59572;DHT22;70118;45.638;11.714;2023-10-31T07:14:38;21.80;82.00
59572;DHT22;70118;45.638;11.714;2023-10-31T07:17:04;21.70;82.00
59572;DHT22;70118;45.638;11.714;2023-10-31T07:19:30;21.70;82.00
59572;DHT22;70118;45.638;11.714;2023-10-31T07:21:56;21.70;82.10
59572;DHT22;70118;45.638;11.714;2023-10-31T07:24:21;21.80;81.90
59572;DHT22;70118;45.638;11.714;2023-10-31T07:26:47;22.30;81.20
59572;DHT22;70118;45.638;11.714;2023-10-31T07:29:13;22.60;80.10
59572;DHT22;70118;45.638;11.714;2023-10-31T07:31:39;22.80;79.60
59572;DHT22;70118;45.638;11.714;2023-10-31T07:34:05;23.30;78.80
59572;DHT22;70118;45.638;11.714;2023-10-31T07:36:31;23.70;79.20
59572;DHT22;70118;45.638;11.714;2023-10-31T07:39:05;24.00;78.50
59572;DHT22;70118;45.638;11.714;2023-10-31T07:41:31;24.30;78.10
59572;DHT22;70118;45.638;11.714;2023-10-31T07:43:56;24.40;77.80
59572;DHT22;70118;45.638;11.714;2023-10-31T07:46:22;24.60;77.60
59572;DHT22;70118;45.638;11.714;2023-10-31T07:48:49;24.70;77.20
59572;DHT22;70118;45.638;11.714;2023-10-31T07:51:14;24.80;77.30
59572;DHT22;70118;45.638;11.714;2023-10-31T07:53:41;24.90;77.20
59572;DHT22;70118;45.638;11.714;2023-10-31T07:56:17;24.90;77.00
59572;DHT22;70118;45.638;11.714;2023-10-31T07:58:43;25.10;76.70
59572;DHT22;70118;45.638;11.714;2023-10-31T08:01:09;25.20;76.80
59572;DHT22;70118;45.638;11.714;2023-10-31T08:03:39;25.20;76.60
59572;DHT22;70118;45.638;11.714;2023-10-31T08:06:08;25.10;76.80
59572;DHT22;70118;45.638;11.714;2023-10-31T08:08:34;25.10;76.90
59572;DHT22;70118;45.638;11.714;2023-10-31T08:11:00;25.00;76.70
59572;DHT22;70118;45.638;11.714;2023-10-31T08:13:26;25.10;76.80
59572;DHT22;70118;45.638;11.714;2023-10-31T08:15:52;25.10;76.80
59572;DHT22;70118;45.638;11.714;2023-10-31T08:18:19;25.00;76.90
59572;DHT22;70118;45.638;11.714;2023-10-31T08:20:45;24.90;77.10
59572;DHT22;70118;45.638;11.714;2023-10-31T08:23:15;24.80;77.10
59572;DHT22;70118;45.638;11.714;2023-10-31T08:25:41;24.70;77.40
59572;DHT22;70118;45.638;11.714;2023-10-31T08:28:06;24.60;77.40
59572;DHT22;70118;45.638;11.714;2023-10-31T08:30:32;24.70;77.40
59572;DHT22;70118;45.638;11.714;2023-10-31T08:32:59;24.70;77.50
59572;DHT22;70118;45.638;11.714;2023-10-31T08:35:25;24.90;77.30
59572;DHT22;70118;45.638;11.714;2023-10-31T08:37:53;25.00;77.00
59572;DHT22;70118;45.638;11.714;2023-10-31T08:40:28;25.20;76.80
59572;DHT22;70118;45.638;11.714;2023-10-31T08:43:00;25.30;76.50
59572;DHT22;70118;45.638;11.714;2023-10-31T08:45:26;25.40;76.50
59572;DHT22;70118;45.638;11.714;2023-10-31T08:47:52;25.50;76.30
59572;DHT22;70118;45.638;11.714;2023-10-31T08:50:18;25.40;76.40
59572;DHT22;70118;45.638;11.714;2023-10-31T08:52:44;25.20;76.60
59572;DHT22;70118;45.638;11.714;2023-10-31T08:55:10;24.90;76.80
59572;DHT22;70118;45.638;11.714;2023-10-31T08:57:35;24.80;77.00
59572;DHT22;70118;45.638;11.714;2023-10-31T09:00:01;24.60;77.30
59572;DHT22;70118;45.638;11.714;2023-10-31T09:02:30;24.50;77.60
59572;DHT22;70118;45.638;11.714;2023-10-31T09:04:56;24.30;77.80
59572;DHT22;70118;45.638;11.714;2023-10-31T09:07:22;24.30;77.90
59572;DHT22;70118;45.638;11.714;2023-10-31T09:09:48;24.30;77.90
59572;DHT22;70118;45.638;11.714;2023-10-31T09:12:14;24.20;78.00
59572;DHT22;70118;45.638;11.714;2023-10-31T09:14:40;24.10;78.20
59572;DHT22;70118;45.638;11.714;2023-10-31T09:17:07;24.00;78.30
59572;DHT22;70118;45.638;11.714;2023-10-31T09:19:33;23.80;78.40
59572;DHT22;70118;45.638;11.714;2023-10-31T09:21:59;23.70;78.50
59572;DHT22;70118;45.638;11.714;2023-10-31T09:24:24;23.70;78.60
59572;DHT22;70118;45.638;11.714;2023-10-31T09:26:50;23.50;77.60
59572;DHT22;70118;45.638;11.714;2023-10-31T09:29:16;23.50;77.50
59572;DHT22;70118;45.638;11.714;2023-10-31T09:31:42;23.40;77.40
59572;DHT22;70118;45.638;11.714;2023-10-31T09:34:08;23.40;77.20
59572;DHT22;70118;45.638;11.714;2023-10-31T09:36:35;23.30;77.10
59572;DHT22;70118;45.638;11.714;2023-10-31T09:39:01;23.30;77.00
59572;DHT22;70118;45.638;11.714;2023-10-31T09:41:27;23.30;77.10
59572;DHT22;70118;45.638;11.714;2023-10-31T09:43:53;23.20;77.00
59572;DHT22;70118;45.638;11.714;2023-10-31T09:46:21;23.10;77.00
59572;DHT22;70118;45.638;11.714;2023-10-31T09:48:48;23.10;76.80
59572;DHT22;70118;45.638;11.714;2023-10-31T09:59:27;22.90;76.90
59572;DHT22;70118;45.638;11.714;2023-10-31T10:01:53;22.90;77.00
59572;DHT22;70118;45.638;11.714;2023-10-31T10:04:19;22.90;77.20
59572;DHT22;70118;45.638;11.714;2023-10-31T10:07:02;22.90;77.20
59572;DHT22;70118;45.638;11.714;2023-10-31T10:09:28;22.90;77.40
59572;DHT22;70118;45.638;11.714;2023-10-31T10:11:56;22.90;77.40
59572;DHT22;70118;45.638;11.714;2023-10-31T10:14:25;22.90;77.50
59572;DHT22;70118;45.638;11.714;2023-10-31T10:16:57;22.80;77.40
59572;DHT22;70118;45.638;11.714;2023-10-31T10:19:23;22.90;77.40
59572;DHT22;70118;45.638;11.714;2023-10-31T10:21:55;22.90;77.50
59572;DHT22;70118;45.638;11.714;2023-10-31T10:24:22;22.80;77.50
59572;DHT22;70118;45.638;11.714;2023-10-31T10:26:49;22.90;77.30
59572;DHT22;70118;45.638;11.714;2023-10-31T10:29:15;22.80;77.10
59572;DHT22;70118;45.638;11.714;2023-10-31T10:31:41;22.80;77.10
59572;DHT22;70118;45.638;11.714;2023-10-31T10:34:08;22.80;76.90
59572;DHT22;70118;45.638;11.714;2023-10-31T10:36:35;22.80;76.80
59572;DHT22;70118;45.638;11.714;2023-10-31T10:39:01;22.80;76.90
59572;DHT22;70118;45.638;11.714;2023-10-31T10:41:28;22.70;76.70
59572;DHT22;70118;45.638;11.714;2023-10-31T10:43:56;22.90;76.90
59572;DHT22;70118;45.638;11.714;2023-10-31T10:46:25;22.90;77.00
59572;DHT22;70118;45.638;11.714;2023-10-31T10:48:55;22.80;77.10
59572;DHT22;70118;45.638;11.714;2023-10-31T10:51:29;22.90;77.20
59572;DHT22;70118;45.638;11.714;2023-10-31T10:54:05;22.80;77.00
59572;DHT22;70118;45.638;11.714;2023-10-31T10:56:38;22.90;77.10
59572;DHT22;70118;45.638;11.714;2023-10-31T10:59:13;22.90;77.20
59572;DHT22;70118;45.638;11.714;2023-10-31T11:01:41;22.80;77.10
59572;DHT22;70118;45.638;11.714;2023-10-31T11:04:07;22.90;77.10
59572;DHT22;70118;45.638;11.714;2023-10-31T11:06:34;22.90;77.10
59572;DHT22;70118;45.638;11.714;2023-10-31T11:09:01;22.90;77.10
59572;DHT22;70118;45.638;11.714;2023-10-31T11:11:28;22.80;77.10
59572;DHT22;70118;45.638;11.714;2023-10-31T11:13:55;22.80;77.20
59572;DHT22;70118;45.638;11.714;2023-10-31T11:16:29;22.90;77.20
59572;DHT22;70118;45.638;11.714;2023-10-31T11:18:56;22.80;77.30
59572;DHT22;70118;45.638;11.714;2023-10-31T11:21:23;22.80;77.30
59572;DHT22;70118;45.638;11.714;2023-10-31T11:23:59;22.90;77.30
59572;DHT22;70118;45.638;11.714;2023-10-31T11:26:36;22.80;77.10
59572;DHT22;70118;45.638;11.714;2023-10-31T11:29:27;22.90;77.20
59572;DHT22;70118;45.638;11.714;2023-10-31T11:31:55;22.80;77.50
59572;DHT22;70118;45.638;11.714;2023-10-31T11:34:22;22.80;77.40
59572;DHT22;70118;45.638;11.714;2023-10-31T11:36:48;22.80;77.50
59572;DHT22;70118;45.638;11.714;2023-10-31T11:39:15;22.80;77.50
59572;DHT22;70118;45.638;11.714;2023-10-31T11:41:49;22.80;77.60
59572;DHT22;70118;45.638;11.714;2023-10-31T11:44:16;22.80;77.40
59572;DHT22;70118;45.638;11.714;2023-10-31T11:46:43;22.80;77.60
59572;DHT22;70118;45.638;11.714;2023-10-31T11:49:13;22.80;77.40
59572;DHT22;70118;45.638;11.714;2023-10-31T11:51:39;22.70;77.40
59572;DHT22;70118;45.638;11.714;2023-10-31T11:54:05;22.80;77.50
59572;DHT22;70118;45.638;11.714;2023-10-31T11:56:35;22.70;77.50
59572;DHT22;70118;45.638;11.714;2023-10-31T11:59:04;22.80;77.50
59572;DHT22;70118;45.638;11.714;2023-10-31T12:01:59;22.70;77.60
59572;DHT22;70118;45.638;11.714;2023-10-31T12:04:30;22.70;77.60
59572;DHT22;70118;45.638;11.714;2023-10-31T12:06:59;22.70;77.70
59572;DHT22;70118;45.638;11.714;2023-10-31T12:09:27;22.60;77.70
59572;DHT22;70118;45.638;11.714;2023-10-31T12:11:55;22.70;77.60
59572;DHT22;70118;45.638;11.714;2023-10-31T12:14:22;22.60;77.70
59572;DHT22;70118;45.638;11.714;2023-10-31T12:16:48;22.60;77.80
59572;DHT22;70118;45.638;11.714;2023-10-31T12:19:15;22.60;77.90
59572;DHT22;70118;45.638;11.714;2023-10-31T12:21:46;22.60;77.80
59572;DHT22;70118;45.638;11.714;2023-10-31T12:24:17;22.60;77.90
59572;DHT22;70118;45.638;11.714;2023-10-31T12:26:43;22.60;78.00
59572;DHT22;70118;45.638;11.714;2023-10-31T12:31:42;22.60;77.90
59572;DHT22;70118;45.638;11.714;2023-10-31T12:34:09;22.50;77.90
59572;DHT22;70118;45.638;11.714;2023-10-31T12:36:36;22.50;77.90
59572;DHT22;70118;45.638;11.714;2023-10-31T12:39:05;22.60;77.80
59572;DHT22;70118;45.638;11.714;2023-10-31T12:41:33;22.40;77.90
59572;DHT22;70118;45.638;11.714;2023-10-31T12:44:00;22.60;77.80
59572;DHT22;70118;45.638;11.714;2023-10-31T12:46:29;22.50;77.80
59572;DHT22;70118;45.638;11.714;2023-10-31T12:48:59;22.50;77.80
59572;DHT22;70118;45.638;11.714;2023-10-31T12:51:25;22.50;77.80
59572;DHT22;70118;45.638;11.714;2023-10-31T12:53:52;22.50;77.70
59572;DHT22;70118;45.638;11.714;2023-10-31T12:56:37;22.40;77.80
59572;DHT22;70118;45.638;11.714;2023-10-31T12:59:06;22.40;77.90
59572;DHT22;70118;45.638;11.714;2023-10-31T13:01:34;22.40;77.80
59572;DHT22;70118;45.638;11.714;2023-10-31T13:04:02;22.50;77.90
59572;DHT22;70118;45.638;11.714;2023-10-31T13:06:28;22.50;77.80
59572;DHT22;70118;45.638;11.714;2023-10-31T13:08:56;22.50;77.90
59572;DHT22;70118;45.638;11.714;2023-10-31T13:11:22;22.60;77.80
59572;DHT22;70118;45.638;11.714;2023-10-31T13:13:54;22.50;77.90
59572;DHT22;70118;45.638;11.714;2023-10-31T13:16:20;22.50;77.90
59572;DHT22;70118;45.638;11.714;2023-10-31T13:18:46;22.50;77.90
59572;DHT22;70118;45.638;11.714;2023-10-31T13:21:12;22.40;77.90
59572;DHT22;70118;45.638;11.714;2023-10-31T13:23:41;22.50;77.90
59572;DHT22;70118;45.638;11.714;2023-10-31T13:26:11;22.50;77.90
59572;DHT22;70118;45.638;11.714;2023-10-31T13:28:37;22.50;77.80
59572;DHT22;70118;45.638;11.714;2023-10-31T13:31:05;22.50;77.90
59572;DHT22;70118;45.638;11.714;2023-10-31T13:33:31;22.40;77.90
59572;DHT22;70118;45.638;11.714;2023-10-31T13:35:57;22.60;77.80
59572;DHT22;70118;45.638;11.714;2023-10-31T13:38:22;22.50;77.90
59572;DHT22;70118;45.638;11.714;2023-10-31T13:40:48;22.40;77.90
59572;DHT22;70118;45.638;11.714;2023-10-31T13:43:14;22.50;77.80
59572;DHT22;70118;45.638;11.714;2023-10-31T13:45:40;22.50;77.90
59572;DHT22;70118;45.638;11.714;2023-10-31T13:48:06;22.50;77.90
59572;DHT22;70118;45.638;11.714;2023-10-31T13:50:32;22.60;77.90
59572;DHT22;70118;45.638;11.714;2023-10-31T13:52:57;22.40;77.90
59572;DHT22;70118;45.638;11.714;2023-10-31T13:55:24;22.50;77.90
59572;DHT22;70118;45.638;11.714;2023-10-31T13:57:50;22.40;77.90
59572;DHT22;70118;45.638;11.714;2023-10-31T14:00:16;22.50;77.70
59572;DHT22;70118;45.638;11.714;2023-10-31T14:02:42;22.50;77.90
59572;DHT22;70118;45.638;11.714;2023-10-31T14:05:08;22.40;77.90
59572;DHT22;70118;45.638;11.714;2023-10-31T14:07:34;22.50;78.00
59572;DHT22;70118;45.638;11.714;2023-10-31T14:10:00;22.50;77.90
59572;DHT22;70118;45.638;11.714;2023-10-31T14:12:26;22.50;77.90
59572;DHT22;70118;45.638;11.714;2023-10-31T14:14:54;22.50;77.80
59572;DHT22;70118;45.638;11.714;2023-10-31T14:17:20;22.50;77.90
59572;DHT22;70118;45.638;11.714;2023-10-31T14:19:48;22.40;77.40
59572;DHT22;70118;45.638;11.714;2023-10-31T14:22:14;22.40;77.40
59572;DHT22;70118;45.638;11.714;2023-10-31T14:24:40;22.40;76.80
59572;DHT22;70118;45.638;11.714;2023-10-31T14:27:06;22.40;76.90
59572;DHT22;70118;45.638;11.714;2023-10-31T14:29:32;22.40;77.20
59572;DHT22;70118;45.638;11.714;2023-10-31T14:32:06;22.50;77.10
59572;DHT22;70118;45.638;11.714;2023-10-31T14:34:32;22.40;76.90
59572;DHT22;70118;45.638;11.714;2023-10-31T14:36:59;22.40;77.10
59572;DHT22;70118;45.638;11.714;2023-10-31T14:39:27;22.30;76.80
59572;DHT22;70118;45.638;11.714;2023-10-31T14:41:54;22.40;76.80
59572;DHT22;70118;45.638;11.714;2023-10-31T14:44:20;22.40;76.80
59572;DHT22;70118;45.638;11.714;2023-10-31T14:46:46;22.40;76.70
59572;DHT22;70118;45.638;11.714;2023-10-31T14:49:12;22.40;76.70
59572;DHT22;70118;45.638;11.714;2023-10-31T14:51:39;22.40;76.70
59572;DHT22;70118;45.638;11.714;2023-10-31T14:54:07;22.40;76.40
59572;DHT22;70118;45.638;11.714;2023-10-31T14:56:34;22.40;76.50
59572;DHT22;70118;45.638;11.714;2023-10-31T14:59:04;22.40;76.40
59572;DHT22;70118;45.638;11.714;2023-10-31T15:01:31;22.40;76.50
59572;DHT22;70118;45.638;11.714;2023-10-31T15:03:56;22.40;76.50
59572;DHT22;70118;45.638;11.714;2023-10-31T15:06:22;22.40;76.20
59572;DHT22;70118;45.638;11.714;2023-10-31T15:08:48;22.40;76.30
59572;DHT22;70118;45.638;11.714;2023-10-31T15:11:15;22.30;76.30
59572;DHT22;70118;45.638;11.714;2023-10-31T15:13:42;22.30;76.40
59572;DHT22;70118;45.638;11.714;2023-10-31T15:16:09;22.30;76.30
59572;DHT22;70118;45.638;11.714;2023-10-31T15:18:34;22.40;76.40
59572;DHT22;70118;45.638;11.714;2023-10-31T15:21:01;22.30;76.30
59572;DHT22;70118;45.638;11.714;2023-10-31T15:23:28;22.30;76.50
59572;DHT22;70118;45.638;11.714;2023-10-31T15:25:55;22.30;76.60